Time;durP1;ratioP1;P1;durP2;ratioP2;P2;SDS_P1;SDS_P2;PMS_P1;PMS_P2;Temp;Humidity;BMP_temperature;BMP_pressure;BME280_temperature;BME280_humidity;BME280_pressure;Samples;Min_cycle;Max_cycle;Signal;HPM_P1;HPM_P2
2024/03/21 00:02:16;;;;;;;30.25;15.35;;;;;;;;;;5019365;28;20080;-83
2024/03/21 00:04:42;;;;;;;35.47;16.60;;;;;;;;;;5036423;28;20041;-84
2024/03/21 00:07:08;;;;;;;35.47;16.17;;;;;;;;;;5015878;28;20025;-84
2024/03/21 00:09:34;;;;;;;39.58;16.90;;;;;;;;;;5020548;28;20040;-84
2024/03/21 00:12:00;;;;;;;37.05;17.88;;;;;;;;;;5017554;28;20022;-84
2024/03/21 00:14:27;;;;;;;32.53;16.77;;;;;;;;;;5026193;28;20098;-85
2024/03/21 00:16:53;;;;;;;37.15;18.70;;;;;;;;;;5001750;28;20037;-81
2024/03/21 00:19:20;;;;;;;37.53;16.98;;;;;;;;;;5020378;28;20033;-82
2024/03/21 00:21:46;;;;;;;40.88;19.45;;;;;;;;;;5031770;28;20526;-82
2024/03/21 00:24:12;;;;;;;39.00;18.92;;;;;;;;;;5026626;28;20306;-83
2024/03/21 00:26:39;;;;;;;59.30;25.67;;;;;;;;;;5027760;28;20068;-84
2024/03/21 00:29:05;;;;;;;49.75;22.83;;;;;;;;;;5023274;28;20033;-83
2024/03/21 00:31:32;;;;;;;43.78;19.67;;;;;;;;;;5006254;28;20033;-82
2024/03/21 00:33:58;;;;;;;35.75;16.83;;;;;;;;;;5014357;28;20314;-84
2024/03/21 00:36:24;;;;;;;33.45;17.17;;;;;;;;;;5019846;28;20064;-82
2024/03/21 00:38:52;;;;;;;31.05;15.23;;;;;;;;;;5038887;28;20030;-82
2024/03/21 00:41:19;;;;;;;34.53;15.35;;;;;;;;;;5020816;28;20040;-81
2024/03/21 00:43:45;;;;;;;33.67;15.98;;;;;;;;;;5014248;28;20026;-82
2024/03/21 00:46:11;;;;;;;45.88;17.63;;;;;;;;;;5027721;28;20026;-83
2024/03/21 00:48:37;;;;;;;33.95;16.67;;;;;;;;;;5036493;28;20138;-83
2024/03/21 00:51:03;;;;;;;30.50;15.75;;;;;;;;;;5037165;28;20030;-81
2024/03/21 00:53:29;;;;;;;36.03;15.52;;;;;;;;;;5022814;28;20040;-81
2024/03/21 00:55:55;;;;;;;33.72;16.23;;;;;;;;;;5040094;28;20103;-83
2024/03/21 00:58:21;;;;;;;34.50;16.63;;;;;;;;;;5024260;28;20043;-84
2024/03/21 01:00:54;;;;;;;35.30;16.77;;;3.50;85.40;;;;;;5043582;28;20037;-84
2024/03/21 01:03:20;;;;;;;37.88;17.23;;;;;;;;;;5039914;28;20376;-82
2024/03/21 01:05:51;;;;;;;37.15;17.33;;;;;;;;;;5056689;28;20037;-85
2024/03/21 01:08:18;;;;;;;31.02;15.95;;;3.50;87.10;;;;;;5042560;28;20034;-83
2024/03/21 01:10:51;;;;;;;37.55;17.05;;;3.40;87.60;;;;;;5023717;28;20104;-84
2024/03/21 01:13:17;;;;;;;33.60;15.70;;;3.50;88.00;;;;;;5033276;28;21010;-82
2024/03/21 01:15:43;;;;;;;34.65;15.52;;;;;;;;;;5027467;28;20026;-85
2024/03/21 01:18:09;;;;;;;32.63;16.55;;;;;;;;;;5018816;28;20277;-85
2024/03/21 01:20:39;;;;;;;32.42;15.50;;;;;;;;;;5023283;28;20034;-81
2024/03/21 01:23:10;;;;;;;32.47;16.73;;;3.40;88.00;;;;;;5041154;28;20081;-82
2024/03/21 01:25:38;;;;;;;33.22;15.95;;;3.40;87.90;;;;;;5028225;28;20045;-83
2024/03/21 01:28:05;;;;;;;33.90;15.88;;;;;;;;;;5026996;28;20043;-80
2024/03/21 01:30:32;;;;;;;36.58;18.27;;;3.40;88.30;;;;;;5030600;28;20085;-84
2024/03/21 01:32:59;;;;;;;34.00;16.00;;;;;;;;;;5024256;28;20318;-80
2024/03/21 01:35:27;;;;;;;36.45;16.25;;;3.30;88.50;;;;;;5033536;28;20149;-83
2024/03/21 01:37:55;;;;;;;34.90;17.08;;;3.20;89.50;;;;;;5035141;28;20087;-84
2024/03/21 01:40:21;;;;;;;33.70;16.77;;;;;;;;;;5046654;28;20060;-82
2024/03/21 01:42:49;;;;;;;30.02;14.55;;;3.20;90.20;;;;;;5048639;28;20494;-82
2024/03/21 01:45:15;;;;;;;40.53;15.55;;;;;;;;;;5043203;28;20033;-83
2024/03/21 01:47:41;;;;;;;37.00;15.90;;;;;;;;;;5035521;28;20096;-83
2024/03/21 01:50:08;;;;;;;32.58;16.17;;;3.10;90.60;;;;;;5053150;28;20076;-82
2024/03/21 01:52:36;;;;;;;39.47;17.55;;;3.10;90.60;;;;;;5024450;28;20030;-81
2024/03/21 01:55:03;;;;;;;38.15;16.92;;;;;;;;;;5045874;28;20036;-80
2024/03/21 01:57:30;;;;;;;36.45;16.40;;;;;;;;;;5043292;28;20034;-82
2024/03/21 01:59:58;;;;;;;35.72;16.35;;;;;;;;;;5043445;28;20100;-84
2024/03/21 02:02:24;;;;;;;36.63;16.75;;;;;;;;;;5031609;28;20037;-81
2024/03/21 02:04:50;;;;;;;32.47;16.10;;;;;;;;;;5043443;28;20053;-80
2024/03/21 02:07:18;;;;;;;37.28;17.25;;;;;;;;;;5027867;28;20033;-84
2024/03/21 02:09:45;;;;;;;35.90;16.25;;;2.80;90.70;;;;;;5041822;28;20034;-83
2024/03/21 02:12:12;;;;;;;34.65;16.05;;;;;;;;;;5038772;28;20043;-82
2024/03/21 02:14:39;;;;;;;31.83;15.43;;;2.90;90.60;;;;;;5039434;28;20025;-85
2024/03/21 02:17:05;;;;;;;28.83;13.57;;;;;;;;;;5048551;28;20033;-85
2024/03/21 02:19:32;;;;;;;37.17;16.65;;;;;;;;;;5039538;28;20048;-83
2024/03/21 02:25:06;;;;;;;29.20;14.63;;;;;;;;;;5012580;28;20033;-82
2024/03/21 02:27:33;;;;;;;30.75;13.75;;;3.00;90.80;;;;;;4991305;28;20034;-81
2024/03/21 02:30:02;;;;;;;32.88;15.40;;;;;;;;;;5002515;28;20037;-81
2024/03/21 02:32:28;;;;;;;33.50;14.02;;;;;;;;;;5032152;28;20025;-82
2024/03/21 02:34:55;;;;;;;34.10;14.75;;;3.10;90.20;;;;;;5046219;28;20215;-87
2024/03/21 02:37:21;;;;;;;33.95;15.30;;;;;;;;;;5056174;28;20034;-80
2024/03/21 02:39:50;;;;;;;36.40;15.93;;;;;;;;;;5058358;28;20025;-83
2024/03/21 02:42:20;;;;;;;35.13;16.13;;;3.00;90.10;;;;;;5033963;28;20045;-80
2024/03/21 02:44:50;;;;;;;36.20;16.98;;;2.90;90.50;;;;;;5031457;28;20034;-82
2024/03/21 02:47:17;;;;;;;33.85;16.08;;;2.70;90.80;;;;;;5058072;28;20078;-78
2024/03/21 02:49:43;;;;;;;35.70;15.82;;;;;;;;;;5047148;28;20034;-81
2024/03/21 02:52:09;;;;;;;35.10;17.30;;;;;;;;;;5049083;28;20030;-83
2024/03/21 02:54:36;;;;;;;36.15;16.52;;;;;;;;;;5020618;28;20049;-85
2024/03/21 02:57:03;;;;;;;31.70;17.52;;;2.70;90.80;;;;;;5037621;28;20041;-84
2024/03/21 02:59:29;;;;;;;31.58;15.27;;;;;;;;;;5029476;28;20033;-86
2024/03/21 03:01:55;;;;;;;32.28;15.80;;;;;;;;;;5042479;28;20043;-80
2024/03/21 03:04:22;;;;;;;32.15;15.48;;;;;;;;;;5029347;28;20037;-85
2024/03/21 03:06:48;;;;;;;36.00;15.32;;;;;;;;;;5041922;28;20030;-87
2024/03/21 03:09:15;;;;;;;37.22;16.40;;;;;;;;;;5033821;28;20037;-83
2024/03/21 03:11:41;;;;;;;35.67;16.50;;;;;;;;;;5043702;28;20091;-86
2024/03/21 03:14:07;;;;;;;34.40;15.90;;;;;;;;;;5055518;28;20033;-85
2024/03/21 03:16:33;;;;;;;32.65;15.75;;;;;;;;;;5048547;28;20053;-84
2024/03/21 03:19:00;;;;;;;31.67;15.75;;;2.50;92.10;;;;;;5055004;28;20104;-85
2024/03/21 03:21:26;;;;;;;36.50;15.52;;;;;;;;;;5042646;28;20026;-83
2024/03/21 03:23:52;;;;;;;35.35;15.68;;;;;;;;;;5038105;28;20037;-86
2024/03/21 03:26:18;;;;;;;37.10;15.82;;;;;;;;;;5040231;28;20021;-83
2024/03/21 03:28:45;;;;;;;32.50;15.30;;;;;;;;;;5057457;28;20104;-87
2024/03/21 03:31:11;;;;;;;39.67;16.85;;;;;;;;;;5039636;28;20226;-84
2024/03/21 03:36:26;;;;;;;32.58;15.35;;;2.30;92.70;;;;;;5042966;28;20036;-86
2024/03/21 03:38:52;;;;;;;32.60;15.48;;;;;;;;;;5038178;28;20037;-85
2024/03/21 03:41:18;;;;;;;39.33;16.65;;;;;;;;;;5035940;28;20041;-83
2024/03/21 03:43:44;;;;;;;37.75;16.60;;;;;;;;;;5044793;28;20030;-83
2024/03/21 03:46:10;;;;;;;34.47;16.95;;;;;;;;;;5034763;28;20064;-85
2024/03/21 03:48:36;;;;;;;37.08;16.88;;;;;;;;;;5023920;28;20053;-86
2024/03/21 03:51:02;;;;;;;34.08;17.05;;;;;;;;;;5024063;28;20034;-84
2024/03/21 03:53:28;;;;;;;34.80;17.00;;;;;;;;;;5013441;28;20053;-84
2024/03/21 03:55:54;;;;;;;37.00;16.88;;;;;;;;;;5017595;28;20049;-82
2024/03/21 03:58:20;;;;;;;35.63;16.88;;;2.10;93.20;;;;;;5048607;28;20040;-86
2024/03/21 04:00:46;;;;;;;37.85;16.00;;;;;;;;;;5031312;28;20340;-82
2024/03/21 04:03:12;;;;;;;39.45;16.08;;;;;;;;;;5030553;28;20093;-83
2024/03/21 04:05:38;;;;;;;40.25;18.65;;;;;;;;;;5037616;28;20026;-88
2024/03/21 04:08:04;;;;;;;40.47;16.58;;;;;;;;;;5019431;28;20085;-86
2024/03/21 04:10:30;;;;;;;38.72;16.65;;;;;;;;;;5032831;28;20037;-86
2024/03/21 04:12:56;;;;;;;34.90;15.88;;;;;;;;;;5032587;28;20090;-84
2024/03/21 04:15:22;;;;;;;35.58;16.10;;;;;;;;;;5003499;28;20038;-86
2024/03/21 04:17:50;;;;;;;35.47;15.95;;;2.10;93.80;;;;;;5040947;28;20048;-87
2024/03/21 04:20:16;;;;;;;39.80;16.38;;;;;;;;;;5028927;28;20067;-85
2024/03/21 04:22:42;;;;;;;36.42;17.23;;;;;;;;;;5017437;28;20053;-87
2024/03/21 04:25:09;;;;;;;35.30;16.08;;;;;;;;;;5022258;28;20033;-83
2024/03/21 04:27:35;;;;;;;39.40;17.23;;;;;;;;;;5010714;28;20033;-80
2024/03/21 04:30:01;;;;;;;38.65;18.35;;;;;;;;;;5006978;28;20105;-81
2024/03/21 04:32:27;;;;;;;32.40;14.75;;;;;;;;;;5025353;28;20096;-84
2024/03/21 04:34:53;;;;;;;34.90;16.35;;;;;;;;;;5027128;28;20034;-83
2024/03/21 04:37:19;;;;;;;40.92;17.65;;;;;;;;;;5019679;28;20037;-84
2024/03/21 04:39:46;;;;;;;37.92;16.60;;;2.10;93.60;;;;;;5036059;28;20032;-84
2024/03/21 04:42:14;;;;;;;35.70;15.50;;;2.20;93.60;;;;;;5002254;28;20358;-81
2024/03/21 04:44:40;;;;;;;34.75;16.23;;;;;;;;;;5018445;28;20037;-84
2024/03/21 04:47:06;;;;;;;36.40;15.43;;;;;;;;;;5029252;28;20071;-84
2024/03/21 04:49:32;;;;;;;41.35;16.00;;;;;;;;;;5043035;28;20034;-87
2024/03/21 04:51:58;;;;;;;35.67;16.35;;;;;;;;;;5042401;28;20185;-82
2024/03/21 04:54:24;;;;;;;32.42;15.75;;;;;;;;;;5031140;28;20045;-81
2024/03/21 04:56:51;;;;;;;33.22;16.02;;;;;;;;;;5047430;28;20041;-86
2024/03/21 04:59:17;;;;;;;33.38;15.55;;;;;;;;;;5033446;28;20041;-86
2024/03/21 05:01:43;;;;;;;38.33;17.10;;;;;;;;;;5026954;28;20033;-82
2024/03/21 05:04:09;;;;;;;36.85;15.90;;;;;;;;;;5042690;28;20048;-83
2024/03/21 05:06:35;;;;;;;37.67;16.23;;;;;;;;;;5042155;28;20033;-85
2024/03/21 05:09:06;;;;;;;35.97;16.60;;;;;;;;;;5035849;28;20035;-84
2024/03/21 05:11:33;;;;;;;40.55;17.73;;;;;;;;;;5042552;28;20324;-83
2024/03/21 05:13:59;;;;;;;34.80;16.05;;;;;;;;;;5030393;28;20033;-85
2024/03/21 05:16:28;;;;;;;38.28;18.85;;;;;;;;;;5034677;28;20051;-85
2024/03/21 05:18:57;;;;;;;35.17;17.08;;;;;;;;;;5038382;28;20049;-84
2024/03/21 05:21:23;;;;;;;37.35;16.15;;;;;;;;;;5043256;28;20037;-83
2024/03/21 05:23:49;;;;;;;37.38;17.65;;;;;;;;;;5033759;28;20363;-87
2024/03/21 05:26:15;;;;;;;34.42;16.63;;;;;;;;;;5031606;28;20032;-82
2024/03/21 05:28:41;;;;;;;31.17;15.43;;;;;;;;;;5042097;28;20033;-85
2024/03/21 05:31:24;;;;;;;40.10;17.65;;;2.70;93.50;;;;;;5033811;28;20365;-84
2024/03/21 05:33:50;;;;;;;36.30;16.65;;;;;;;;;;5033882;28;20029;-84
2024/03/21 05:36:16;;;;;;;36.05;17.92;;;2.90;93.40;;;;;;5042065;28;20036;-84
2024/03/21 05:38:45;;;;;;;37.38;17.85;;;3.00;93.10;;;;;;5033951;28;20074;-83
2024/03/21 05:41:11;;;;;;;39.97;19.05;;;;;;;;;;5042535;28;20032;-84
2024/03/21 05:43:37;;;;;;;40.47;18.92;;;;;;;;;;5042846;28;20029;-85
2024/03/21 05:46:04;;;;;;;46.80;19.05;;;;;;;;;;5042940;28;20032;-85
2024/03/21 05:48:31;;;;;;;43.45;19.70;;;3.30;92.00;;;;;;5044542;28;20126;-85
2024/03/21 05:50:57;;;;;;;39.38;18.23;;;;;;;;;;5044004;28;20260;-86
2024/03/21 05:53:23;;;;;;;37.22;18.15;;;;;;;;;;5034494;28;20033;-87
2024/03/21 05:56:06;;;;;;;37.45;18.60;;;3.40;99.90;;;;;;5037381;28;20044;-79
2024/03/21 05:58:33;;;;;;;35.42;17.35;;;3.80;92.30;;;;;;5025624;28;20099;-85
2024/03/21 06:03:37;;;;;;;39.35;18.25;;;3.90;92.10;;;;;;5048790;28;20314;-78
2024/03/21 06:06:04;;;;;;;37.05;17.50;;;4.30;99.90;;;;;;5056136;28;20333;-82
2024/03/21 06:08:30;;;;;;;42.10;19.13;;;;;;;;;;5033917;28;20045;-79
2024/03/21 06:10:56;;;;;;;34.78;17.55;;;;;;;;;;5017127;28;20372;-77
2024/03/21 06:13:22;;;;;;;38.13;16.88;;;;;;;;;;5027511;28;20029;-83
2024/03/21 06:15:48;;;;;;;35.53;17.00;;;;;;;;;;5041068;28;20123;-78
2024/03/21 06:18:15;;;;;;;34.60;17.08;;;5.10;85.50;;;;;;5029610;28;20037;-79
2024/03/21 06:20:42;;;;;;;32.60;16.17;;;;;;;;;;5041939;28;20298;-82
2024/03/21 06:23:08;;;;;;;37.50;16.38;;;;;;;;;;5038482;28;20025;-80
2024/03/21 06:25:34;;;;;;;31.52;15.90;;;;;;;;;;5039754;28;20037;-80
2024/03/21 06:28:01;;;;;;;33.15;17.52;;;;;;;;;;5048268;28;20028;-82
2024/03/21 06:30:28;;;;;;;33.80;16.27;;;;;;;;;;5030538;28;20092;-82
2024/03/21 06:32:54;;;;;;;37.53;16.92;;;6.00;78.80;;;;;;5048022;28;20246;-80
2024/03/21 06:35:20;;;;;;;37.83;18.08;;;;;;;;;;5074103;23;20627;-79
2024/03/21 06:37:53;;;;;;;34.83;16.88;;;6.30;76.90;;;;;;5103570;28;20136;-82
2024/03/21 06:40:20;;;;;;;33.83;16.63;;;6.40;76.60;;;;;;5089091;28;20087;-81
2024/03/21 06:42:46;;;;;;;34.20;17.20;;;6.90;95.80;;;;;;5095211;28;20036;-82
2024/03/21 06:45:15;;;;;;;35.40;16.63;;;6.70;74.00;;;;;;5104578;28;20015;-82
2024/03/21 06:47:43;;;;;;;30.08;14.90;;;7.30;72.40;;;;;;5120084;28;20028;-80
2024/03/21 06:50:16;;;;;;;33.70;16.90;;;7.20;73.00;;;;;;5093289;28;20047;-80
2024/03/21 06:52:50;;;;;;;30.60;14.77;;;7.50;70.90;;;;;;5101099;28;20055;-80
2024/03/21 06:55:18;;;;;;;31.77;15.80;;;7.60;70.10;;;;;;5098058;28;20199;-81
2024/03/21 06:57:49;;;;;;;30.70;16.15;;;8.00;67.90;;;;;;5096445;28;20039;-82
2024/03/21 07:00:16;;;;;;;30.83;15.68;;;;;;;;;;5105075;28;20035;-81
2024/03/21 07:02:44;;;;;;;33.85;16.15;;;8.40;65.90;;;;;;5114573;28;20032;-82
2024/03/21 07:05:11;;;;;;;32.95;16.85;;;8.30;65.80;;;;;;5106576;28;20036;-82
2024/03/21 07:07:37;;;;;;;30.25;15.27;;;;;;;;;;5108250;28;20104;-82
2024/03/21 07:10:04;;;;;;;37.03;16.38;;;8.80;82.20;;;;;;5116230;28;20020;-81
2024/03/21 07:12:33;;;;;;;31.55;15.90;;;8.90;62.80;;;;;;5107857;28;20042;-81
2024/03/21 07:15:01;;;;;;;28.80;15.43;;;8.90;80.50;;;;;;5107906;28;20023;-80
2024/03/21 07:17:27;;;;;;;33.47;16.42;;;;;;;;;;5098557;28;20146;-81
2024/03/21 07:19:53;;;;;;;33.45;16.30;;;;;;;;;;5105541;28;20035;-81
2024/03/21 07:22:19;;;;;;;30.75;16.52;;;9.40;60.90;;;;;;5122879;27;20028;-82
2024/03/21 07:24:46;;;;;;;32.42;16.15;;;;;;;;;;5071925;28;20421;-79
2024/03/21 07:27:12;;;;;;;32.03;15.48;;;9.50;60.20;;;;;;5087912;28;20043;-80
2024/03/21 07:29:39;;;;;;;35.25;15.63;;;;;;;;;;5100454;28;20031;-83
2024/03/21 07:32:05;;;;;;;34.15;16.67;;;;;;;;;;5097312;28;20515;-83
2024/03/21 07:34:32;;;;;;;37.80;16.60;;;;;;;;;;5071274;28;20100;-81
2024/03/21 07:36:59;;;;;;;36.45;17.17;;;;;;;;;;5088447;28;20031;-82
2024/03/21 07:39:29;;;;;;;36.53;16.50;;;10.40;57.40;;;;;;5086922;28;20060;-82
2024/03/21 07:41:58;;;;;;;31.13;16.08;;;;;;;;;;5087853;28;20012;-80
2024/03/21 07:44:24;;;;;;;;;;;10.60;56.60;;;;;;5102827;28;20020;-81
2024/03/21 07:46:51;;;;;;;33.60;16.58;;;;;;;;;;5087745;28;19916;-81
2024/03/21 07:49:18;;;;;;;32.05;15.80;;;10.60;57.40;;;;;;5102099;28;20043;-81
2024/03/21 07:51:44;;;;;;;29.52;16.83;;;;;;;;;;5085312;28;20032;-86
2024/03/21 07:54:10;;;;;;;32.53;17.58;;;;;;;;;;5088013;28;20101;-83
2024/03/21 07:56:37;;;;;;;37.70;17.38;;;;;;;;;;5105256;28;20034;-81
2024/03/21 07:59:05;;;;;;;33.33;17.15;;;;;;;;;;5087103;28;20081;-84
2024/03/21 08:01:32;;;;;;;35.22;17.33;;;11.00;56.20;;;;;;5086770;28;20130;-84
2024/03/21 08:04:01;;;;;;;30.10;15.43;;;;;;;;;;5087206;28;20040;-83
2024/03/21 08:06:27;;;;;;;31.95;14.95;;;;;;;;;;5085638;28;20216;-84
2024/03/21 08:08:53;;;;;;;28.20;15.05;;;11.40;53.10;;;;;;5083141;28;20035;-82
2024/03/21 08:11:19;;;;;;;29.73;15.52;;;;;;;;;;5104256;28;20024;-82
2024/03/21 08:13:45;;;;;;;29.83;14.70;;;;;;;;;;5087825;28;20042;-83
2024/03/21 08:16:13;;;;;;;30.42;14.20;;;;;;;;;;5087367;28;20028;-86
2024/03/21 08:18:39;;;;;;;34.33;17.67;;;;;;;;;;5103648;28;20031;-81
2024/03/21 08:21:05;;;;;;;26.38;13.75;;;;;;;;;;5087267;28;20324;-80
2024/03/21 08:23:31;;;;;;;30.27;15.85;;;;;;;;;;5074371;28;20037;-82
2024/03/21 08:26:04;;;;;;;34.67;16.08;;;12.30;48.50;;;;;;5115801;28;20016;-84
2024/03/21 08:28:32;;;;;;;32.67;14.82;;;;;;;;;;5089695;28;20021;-83
2024/03/21 08:30:58;;;;;;;29.63;13.85;;;;;;;;;;5085877;28;20152;-85
2024/03/21 08:33:24;;;;;;;34.53;15.18;;;;;;;;;;5073010;28;20193;-81
2024/03/21 08:35:51;;;;;;;28.75;15.75;;;;;;;;;;5089983;28;20036;-79
2024/03/21 08:38:20;;;;;;;25.73;14.65;;;;;;;;;;5078444;28;20046;-79
2024/03/21 08:40:52;;;;;;;40.75;18.35;;;12.70;47.60;;;;;;5078148;28;20127;-81
2024/03/21 08:43:19;;;;;;;31.63;16.05;;;;;;;;;;5062748;28;20085;-82
2024/03/21 08:45:48;;;;;;;38.42;17.33;;;;;;;;;;5083136;28;20351;-82
2024/03/21 08:48:18;;;;;;;34.10;16.85;;;12.80;47.50;;;;;;5081337;28;20386;-80
2024/03/21 08:50:45;;;;;;;30.95;15.68;;;;;;;;;;5088957;28;20060;-82
2024/03/21 08:53:12;;;;;;;32.72;16.20;;;;;;;;;;5085055;28;20034;-78
2024/03/21 08:55:38;;;;;;;33.95;16.45;;;;;;;;;;5074415;28;20024;-80
2024/03/21 08:58:05;;;;;;;35.03;17.17;;;13.10;47.70;;;;;;5071196;28;20051;-80
2024/03/21 09:00:37;;;;;;;29.35;15.45;;;;;;;;;;5065946;28;20033;-83
2024/03/21 09:03:05;;;;;;;30.00;16.20;;;;;;;;;;5065371;28;20056;-81
2024/03/21 09:05:31;;;;;;;34.95;16.70;;;;;;;;;;5076599;28;20037;-83
2024/03/21 09:07:57;;;;;;;25.20;14.00;;;;;;;;;;5073160;28;20052;-81
2024/03/21 09:10:23;;;;;;;34.22;16.52;;;;;;;;;;5061015;28;20356;-84
2024/03/21 09:12:49;;;;;;;26.52;14.43;;;;;;;;;;5106488;28;20034;-79
2024/03/21 09:15:17;;;;;;;29.90;16.58;;;;;;;;;;5082286;28;20028;-81
2024/03/21 09:17:44;;;;;;;27.03;14.77;;;;;;;;;;5076726;28;20036;-82
2024/03/21 09:20:10;;;;;;;29.55;16.50;;;;;;;;;;5125701;22;20399;-83
2024/03/21 09:22:36;;;;;;;19.95;11.65;;;;;;;;;;5085397;28;20016;-84
2024/03/21 09:25:04;;;;;;;26.77;15.32;;;;;;;;;;5104305;27;20120;-84
2024/03/21 09:27:30;;;;;;;30.45;16.13;;;;;;;;;;5092518;28;20029;-80
2024/03/21 09:29:56;;;;;;;30.90;15.35;;;;;;;;;;5092888;28;20028;-84
2024/03/21 09:32:22;;;;;;;30.25;14.73;;;;;;;;;;5113677;22;20051;-81
2024/03/21 09:34:52;;;;;;;25.20;14.77;;;;;;;;;;5106986;28;20026;-84
2024/03/21 09:37:24;;;;;;;27.88;15.77;;;;;;;;;;5112000;22;20120;-80
2024/03/21 09:39:51;;;;;;;32.25;15.27;;;;;;;;;;5128005;22;20035;-81
2024/03/21 09:42:19;;;;;;;26.27;13.45;;;;;;;;;;5105497;28;20345;-82
2024/03/21 09:44:53;;;;;;;29.35;15.40;;;14.70;43.80;;;;;;5110965;28;20107;-80
2024/03/21 09:47:23;;;;;;;28.40;15.70;;;14.70;43.60;;;;;;5114613;28;20031;-80
2024/03/21 09:49:50;;;;;;;26.92;13.73;;;;;;;;;;5107901;28;20024;-80
2024/03/21 09:52:17;;;;;;;25.88;14.77;;;;;;;;;;5123184;28;20059;-82
2024/03/21 09:54:43;;;;;;;26.48;14.25;;;;;;;;;;5119923;28;20065;-84
2024/03/21 09:57:11;;;;;;;30.60;14.30;;;;;;;;;;5126453;28;20066;-83
2024/03/21 09:59:39;;;;;;;22.35;12.32;;;15.20;43.90;;;;;;5122433;28;20047;-80
2024/03/21 10:02:12;;;;;;;23.23;13.52;;;15.40;43.50;;;;;;5125647;28;20027;-83
2024/03/21 10:04:48;;;;;;;25.27;13.02;;;15.50;43.10;;;;;;5124083;28;20019;-86
2024/03/21 10:07:17;;;;;;;20.75;11.90;;;;;;;;;;5136535;28;20054;-81
2024/03/21 10:09:43;;;;;;;24.73;11.95;;;;;;;;;;5110108;28;20094;-82
2024/03/21 10:12:09;;;;;;;23.38;12.68;;;;;;;;;;5115287;22;20047;-80
2024/03/21 10:14:39;;;;;;;23.88;14.00;;;15.90;42.70;;;;;;5114085;27;20046;-82
2024/03/21 10:17:05;;;;;;;21.35;12.35;;;;;;;;;;5114726;28;20031;-82
2024/03/21 10:19:31;;;;;;;27.17;10.80;;;;;;;;;;5109702;28;20059;-84
2024/03/21 10:21:57;;;;;;;20.92;11.15;;;;;;;;;;5109479;28;20051;-84
2024/03/21 10:24:24;;;;;;;17.10;9.00;;;16.40;41.20;;;;;;5103830;28;20024;-83
2024/03/21 10:26:50;;;;;;;22.08;10.13;;;;;;;;;;5121846;27;20027;-82
2024/03/21 10:29:16;;;;;;;19.42;12.18;;;;;;;;;;5109836;28;20094;-81
2024/03/21 10:31:44;;;;;;;21.70;11.48;;;16.90;41.30;;;;;;5130543;27;20027;-90
2024/03/21 10:34:11;;;;;;;20.70;11.23;;;17.00;41.70;;;;;;5110663;28;20384;-88
2024/03/21 10:36:37;;;;;;;25.00;12.75;;;;;;;;;;5110905;28;20031;-83
2024/03/21 10:39:09;;;;;;;22.75;12.63;;;17.10;41.20;;;;;;5110131;27;20031;-87
2024/03/21 10:41:39;;;;;;;23.48;12.07;;;17.20;41.00;;;;;;5117424;28;20028;-82
2024/03/21 10:44:11;;;;;;;20.50;11.45;;;17.20;41.50;;;;;;5121912;28;20020;-83
2024/03/21 10:46:41;;;;;;;21.63;13.15;;;;;;;;;;5109866;28;20114;-82
2024/03/21 10:49:14;;;;;;;24.08;14.07;;;17.40;41.50;;;;;;5106606;27;20035;-84
2024/03/21 10:51:43;;;;;;;26.00;13.13;;;17.50;41.20;;;;;;5142775;27;20098;-84
2024/03/21 10:54:13;;;;;;;20.65;12.20;;;;;;;;;;5126422;27;20054;-84
2024/03/21 10:56:40;;;;;;;24.17;12.20;;;;;;;;;;5129167;27;20060;-82
2024/03/21 10:59:07;;;;;;;22.52;12.73;;;;;;;;;;5111700;27;20272;-84
2024/03/21 11:01:40;;;;;;;22.25;12.07;;;17.40;41.20;;;;;;5154386;27;20051;-84
2024/03/21 11:04:11;;;;;;;20.73;11.55;;;17.50;41.10;;;;;;5120230;27;20035;-83
2024/03/21 11:06:39;;;;;;;20.38;11.27;;;17.50;40.80;;;;;;5128401;27;20271;-83
2024/03/21 11:09:06;;;;;;;19.73;10.80;;;;;;;;;;5111534;28;20028;-81
2024/03/21 11:11:32;;;;;;;17.02;10.23;;;;;;;;;;5120970;27;20020;-82
2024/03/21 11:14:01;;;;;;;17.25;10.75;;;;;;;;;;5120049;28;20044;-81
2024/03/21 11:16:28;;;;;;;19.00;11.43;;;17.70;40.10;;;;;;5105300;28;20216;-84
2024/03/21 11:18:55;;;;;;;18.38;10.45;;;;;;;;;;5110322;28;20023;-82
2024/03/21 11:21:21;;;;;;;21.02;10.85;;;;;;;;;;5123433;28;20024;-83
2024/03/21 11:23:47;;;;;;;23.92;12.80;;;;;;;;;;5124488;28;20472;-85
2024/03/21 11:26:19;;;;;;;23.38;13.52;;;18.10;39.80;;;;;;5119333;27;20031;-81
2024/03/21 11:28:46;;;;;;;21.52;11.90;;;18.10;39.70;;;;;;5114478;28;20049;-80
2024/03/21 11:31:21;;;;;;;17.00;9.40;;;18.20;39.00;;;;;;5128860;27;20035;-79
2024/03/21 11:33:48;;;;;;;20.58;12.18;;;18.30;39.10;;;;;;5130814;27;20630;-82
2024/03/21 11:36:15;;;;;;;16.23;9.40;;;18.30;39.10;;;;;;5117116;27;20100;-79
2024/03/21 11:38:42;;;;;;;16.70;9.40;;;;;;;;;;5128570;27;20049;-80
2024/03/21 11:41:08;;;;;;;20.75;9.30;;;;;;;;;;5129959;27;20229;-80
2024/03/21 11:43:38;;;;;;;17.55;9.95;;;;;;;;;;5123951;27;20024;-85
2024/03/21 11:46:04;;;;;;;16.50;10.32;;;;;;;;;;5123133;28;20304;-81
2024/03/21 11:48:31;;;;;;;19.42;10.85;;;;;;;;;;5143861;27;20091;-83
2024/03/21 11:50:57;;;;;;;20.08;11.70;;;;;;;;;;5121436;28;20558;-86
2024/03/21 11:53:24;;;;;;;20.80;11.43;;;;;;;;;;5112195;28;20028;-79
2024/03/21 11:55:50;;;;;;;19.80;11.40;;;;;;;;;;5126705;28;20019;-79
2024/03/21 11:58:16;;;;;;;20.25;10.43;;;;;;;;;;5116532;28;20031;-79
2024/03/21 12:00:42;;;;;;;17.63;11.00;;;;;;;;;;5116216;28;20027;-79
2024/03/21 12:03:11;;;;;;;19.55;11.27;;;19.00;38.90;;;;;;5114146;28;20031;-83
2024/03/21 12:05:37;;;;;;;18.92;10.98;;;;;;;;;;5108221;28;20027;-81
2024/03/21 12:08:04;;;;;;;18.77;10.30;;;;;;;;;;5122080;28;20258;-80
2024/03/21 12:10:31;;;;;;;19.70;11.82;;;;;;;;;;5126470;27;20042;-82
2024/03/21 12:12:57;;;;;;;18.13;10.82;;;;;;;;;;5108657;28;20095;-89
2024/03/21 12:15:23;;;;;;;20.80;11.23;;;;;;;;;;5115914;28;20343;-81
2024/03/21 12:17:49;;;;;;;19.73;11.13;;;;;;;;;;5108020;28;20035;-83
2024/03/21 12:20:15;;;;;;;17.92;11.32;;;;;;;;;;5109949;28;20027;-82
2024/03/21 12:22:41;;;;;;;19.35;11.90;;;;;;;;;;5118365;28;20028;-83
2024/03/21 12:25:07;;;;;;;24.05;13.48;;;19.40;38.70;;;;;;5112870;28;20023;-79
2024/03/21 12:27:34;;;;;;;18.38;11.93;;;;;;;;;;5114674;28;20115;-86
2024/03/21 12:30:00;;;;;;;21.70;11.35;;;;;;;;;;5118529;27;20312;-82
2024/03/21 12:32:26;;;;;;;17.73;10.32;;;;;;;;;;5134346;27;20020;-79
2024/03/21 12:34:52;;;;;;;20.08;12.18;;;;;;;;;;5112789;28;20031;-80
2024/03/21 12:37:18;;;;;;;15.90;10.35;;;;;;;;;;5121837;28;20371;-81
2024/03/21 12:39:44;;;;;;;21.98;10.70;;;;;;;;;;5125211;27;20034;-79
2024/03/21 12:42:12;;;;;;;18.63;11.32;;;;;;;;;;5116007;27;20058;-85
2024/03/21 12:44:39;;;;;;;19.35;11.40;;;;;;;;;;5135320;27;20027;-81
2024/03/21 12:47:06;;;;;;;17.92;11.75;;;;;;;;;;5122228;27;20035;-85
2024/03/21 12:49:33;;;;;;;20.25;12.02;;;;;;;;;;5117357;27;20026;-83
2024/03/21 12:51:59;;;;;;;13.05;9.10;;;;;;;;;;5117812;28;20323;-81
2024/03/21 12:54:26;;;;;;;13.52;8.13;;;;;;;;;;5135951;27;20027;-84
2024/03/21 12:56:52;;;;;;;13.23;8.45;;;;;;;;;;5110428;28;20024;-84
2024/03/21 12:59:18;;;;;;;16.70;10.25;;;;;;;;;;5123491;27;20035;-84
2024/03/21 13:01:44;;;;;;;17.70;10.57;;;;;;;;;;5116742;28;20038;-85
2024/03/21 13:04:10;;;;;;;18.85;10.95;;;;;;;;;;5116346;27;20031;-80
2024/03/21 13:06:36;;;;;;;18.83;10.70;;;;;;;;;;5109299;28;20028;-80
2024/03/21 13:09:04;;;;;;;14.73;11.30;;;;;;;;;;5119037;27;20079;-87
2024/03/21 13:11:31;;;;;;;18.73;11.80;;;;;;;;;;5116338;27;20031;-81
2024/03/21 13:13:57;;;;;;;17.15;12.30;;;;;;;;;;5108173;28;20103;-81
2024/03/21 13:16:25;;;;;;;26.65;11.52;;;;;;;;;;5120630;27;20118;-82
2024/03/21 13:18:51;;;;;;;18.60;11.10;;;;;;;;;;5127892;27;20102;-82
2024/03/21 13:21:17;;;;;;;15.40;10.82;;;;;;;;;;5124043;28;20130;-84
2024/03/21 13:23:44;;;;;;;21.77;12.25;;;;;;;;;;5133952;27;20019;-83
2024/03/21 13:26:15;;;;;;;18.30;11.20;;;;;;;;;;5139779;27;20028;-84
2024/03/21 13:28:43;;;;;;;15.77;11.00;;;;;;;;;;5100066;27;20030;-85
2024/03/21 13:31:11;;;;;;;15.05;12.00;;;;;;;;;;5136299;27;20023;-85
2024/03/21 13:33:39;;;;;;;19.20;11.85;;;;;;;;;;5134880;27;20050;-88
2024/03/21 13:36:05;;;;;;;15.68;11.00;;;30.90;26.40;;;;;;5135518;22;20356;-67
2024/03/21 13:38:31;;;;;;;17.42;12.43;;;30.30;32.20;;;;;;5111752;28;20085;-67
2024/03/21 13:41:00;;;;;;;18.88;12.68;;;30.20;27.50;;;;;;5115161;28;20232;-65
2024/03/21 13:43:25;;;;;;;19.17;11.93;;;29.90;27.50;;;;;;5099749;28;20052;-66
2024/03/21 13:45:54;;;;;;;17.92;12.02;;;30.40;27.50;;;;;;5100012;28;20307;-69
2024/03/21 13:48:23;;;;;;;18.50;11.25;;;28.90;33.30;;;;;;5099340;28;20321;-65
2024/03/21 13:50:48;;;;;;;16.80;10.57;;;29.30;33.50;;;;;;5106549;28;20039;-67
2024/03/21 13:53:15;;;;;;;16.05;10.65;;;30.50;32.60;;;;;;5116735;28;20099;-67